Time;durP1;ratioP1;P1;durP2;ratioP2;P2;SDS_P1;SDS_P2;PMS_P1;PMS_P2;Temp;Humidity;BMP_temperature;BMP_pressure;BME280_temperature;BME280_humidity;BME280_pressure;Samples;Min_cycle;Max_cycle;Signal;HPM_P1;HPM_P2
2023/04/21 00:00:52;;;;;;;0.40;0.40;;;;;;;22.54;35.48;101464.69;5028333;27;97749;-74
2023/04/21 00:03:21;;;;;;;0.50;0.40;;;;;;;22.54;35.69;101458.34;5015723;28;96792;-74
2023/04/21 00:05:49;;;;;;;0.60;0.50;;;;;;;22.55;35.44;101451.84;5027203;28;96695;-75
2023/04/21 00:08:17;;;;;;;0.50;0.40;;;;;;;22.54;35.49;101431.81;5032315;28;96958;-74
2023/04/21 00:10:45;;;;;;;0.30;0.30;;;;;;;22.54;35.77;101442.78;5019751;28;97746;-74
2023/04/21 00:13:12;;;;;;;0.50;0.50;;;;;;;22.54;35.79;101442.78;5030142;28;96893;-75
2023/04/21 00:15:38;;;;;;;1.52;0.50;;;;;;;22.53;35.26;101419.16;5033443;28;96870;-74
2023/04/21 00:18:05;;;;;;;0.40;0.40;;;;;;;22.55;35.67;101421.72;5018306;27;97022;-73
2023/04/21 00:20:31;;;;;;;0.40;0.40;;;;;;;22.54;35.69;101422.75;5031306;28;96693;-74
2023/04/21 00:22:58;;;;;;;0.40;0.40;;;;;;;22.54;35.71;101406.34;5032206;28;96654;-74
2023/04/21 00:25:25;;;;;;;0.40;0.40;;;;;;;22.54;35.61;101400.88;5031405;27;96623;-74
2023/04/21 00:27:51;;;;;;;0.43;0.40;;;;;;;22.54;35.67;101401.72;5033611;27;96575;-74
2023/04/21 00:30:18;;;;;;;0.50;0.45;;;;;;;22.54;35.67;101407.19;5015093;28;96833;-75
2023/04/21 00:32:45;;;;;;;0.60;0.40;;;;;;;22.52;35.42;101401.88;5031297;28;98318;-74
2023/04/21 00:35:12;;;;;;;0.43;0.38;;;;;;;22.54;35.37;101411.81;5017168;28;96739;-74
2023/04/21 00:37:39;;;;;;;0.65;0.35;;;;;;;22.53;35.55;101405.47;5032350;28;96725;-74
2023/04/21 00:40:07;;;;;;;0.40;0.40;;;;;;;22.54;35.68;101407.19;5031825;28;98001;-74
2023/04/21 00:42:38;;;;;;;0.40;0.40;;;;;;;22.54;35.44;101406.34;5015713;28;97973;-74
2023/04/21 00:45:05;;;;;;;0.50;0.40;;;;;;;22.54;35.81;101409.94;5031657;28;96942;-75
2023/04/21 00:47:32;;;;;;;0.40;0.40;;;;;;;22.54;35.42;101411.81;5015007;28;96746;-74
2023/04/21 00:49:58;;;;;;;0.50;0.40;;;;;;;22.54;35.55;101411.81;5031260;28;96874;-74
2023/04/21 00:52:26;;;;;;;0.40;0.40;;;;;;;22.54;35.78;101403.59;5032617;28;96742;-74
2023/04/21 00:54:53;;;;;;;0.50;0.50;;;;;;;22.53;35.73;101400.00;5031406;27;96761;-75
2023/04/21 00:57:20;;;;;;;0.50;0.40;;;;;;;22.52;35.64;101393.69;5017502;27;97138;-74
2023/04/21 00:59:47;;;;;;;0.40;0.30;;;;;;;22.54;35.66;101400.88;5031050;28;98766;-75
2023/04/21 01:02:15;;;;;;;0.40;0.40;;;;;;;22.55;35.87;101399.84;5030911;28;96779;-75
2023/04/21 01:04:44;;;;;;;0.50;0.50;;;;;;;22.53;35.54;101400.00;5017378;28;96814;-74
2023/04/21 01:07:11;;;;;;;0.60;0.50;;;;;;;22.52;35.49;101388.19;5032198;28;97090;-74
2023/04/21 01:09:38;;;;;;;0.40;0.40;;;;;;;22.52;35.58;101388.19;5031272;28;96992;-75
2023/04/21 01:12:10;;;;;;;0.50;0.50;;;;;;;22.53;35.73;101378.09;5014076;28;97386;-75
2023/04/21 01:14:38;;;;;;;0.40;0.38;;;;;;;22.52;35.78;101381.88;5030745;28;96720;-74
2023/04/21 01:17:06;;;;;;;0.52;0.50;;;;;;;22.53;35.80;101383.59;5033129;27;97416;-74
2023/04/21 01:19:38;;;;;;;0.52;0.40;;;;;;;22.52;35.60;101374.53;5020396;28;97903;-74
2023/04/21 01:22:12;;;;;;;0.38;0.30;;;;;;;22.52;35.40;101370.94;5021924;28;96891;-74
2023/04/21 01:24:43;;;;;;;0.40;0.40;;;;;;;22.52;35.70;101376.41;5018495;28;96783;-72
2023/04/21 01:27:12;;;;;;;0.60;0.50;;;;;;;22.52;35.68;101379.13;5030804;28;96666;-74
2023/04/21 01:29:40;;;;;;;0.47;0.40;;;;;;;22.52;35.57;101390.09;5014129;28;96886;-75
2023/04/21 01:32:10;;;;;;;0.40;0.40;;;;;;;22.52;35.60;101384.63;5014095;28;99436;-75
2023/04/21 01:34:39;;;;;;;0.40;0.38;;;;;;;22.52;35.38;101388.19;5030892;27;96736;-74
2023/04/21 01:37:11;;;;;;;0.55;0.47;;;;;;;22.51;35.50;101381.03;5019948;28;96867;-74
2023/04/21 01:39:39;;;;;;;0.80;0.52;;;;;;;22.52;35.56;101373.66;5028287;28;96781;-74
2023/04/21 01:42:06;;;;;;;0.40;0.30;;;;;;;22.51;35.73;101374.69;5030458;27;98401;-74
2023/04/21 01:44:34;;;;;;;0.50;0.40;;;;;;;22.51;35.51;101378.28;5030247;28;96613;-74
2023/04/21 01:47:01;;;;;;;0.50;0.50;;;;;;;22.51;35.61;101371.94;5030891;28;96895;-74
2023/04/21 01:49:28;;;;;;;0.40;0.40;;;;;;;22.51;35.80;101366.47;5030564;28;97354;-74
2023/04/21 01:51:55;;;;;;;0.40;0.40;;;;;;;22.52;35.81;101370.94;5030431;28;97806;-73
2023/04/21 01:54:22;;;;;;;0.70;0.60;;;;;;;22.51;35.46;101355.53;5000586;28;97229;-75
2023/04/21 01:56:48;;;;;;;0.50;0.40;;;;;;;22.52;35.42;101354.50;5031694;28;96823;-75
2023/04/21 01:59:15;;;;;;;0.50;0.40;;;;;;;22.51;35.34;101352.78;5030489;28;99281;-75
2023/04/21 02:01:42;;;;;;;0.40;0.40;;;;;;;22.51;35.73;101344.59;5013174;28;98841;-74
2023/04/21 02:04:09;;;;;;;0.40;0.30;;;;;;;22.52;35.70;101349.03;5020507;27;97566;-74
2023/04/21 02:06:35;;;;;;;0.57;0.40;;;;;;;22.51;35.58;101339.09;5027437;28;97208;-74
2023/04/21 02:09:05;;;;;;;0.50;0.50;;;;;;;22.52;35.70;101343.56;5022117;28;96821;-74
2023/04/21 02:11:31;;;;;;;0.73;0.60;;;;;;;22.51;35.60;101348.16;5023976;28;97828;-73
2023/04/21 02:13:58;;;;;;;0.50;0.40;;;;;;;22.51;35.48;101328.16;5030463;28;96708;-74
2023/04/21 02:16:25;;;;;;;0.50;0.50;;;;;;;22.52;35.73;101332.59;5030280;27;96887;-74
2023/04/21 02:18:52;;;;;;;0.47;0.40;;;;;;;22.52;35.42;101333.47;5013394;28;98686;-74
2023/04/21 02:21:20;;;;;;;0.50;0.43;;;;;;;22.51;35.81;101337.22;5029904;28;97121;-74
2023/04/21 02:23:48;;;;;;;0.57;0.50;;;;;;;22.51;35.58;101339.97;5028528;27;96618;-75
2023/04/21 02:26:14;;;;;;;0.40;0.35;;;;;;;22.50;35.62;101330.03;5002688;28;97465;-74
2023/04/21 02:28:41;;;;;;;0.35;0.35;;;;;;;22.51;35.74;101336.38;5014894;27;100314;-75
2023/04/21 02:31:07;;;;;;;0.55;0.47;;;;;;;22.50;35.58;101335.50;5029632;27;98319;-75
2023/04/21 02:33:34;;;;;;;0.50;0.50;;;;;;;22.51;35.64;101328.16;5010346;28;97422;-73
2023/04/21 02:36:01;;;;;;;0.60;0.40;;;;;;;22.49;35.88;101320.13;5030161;28;97293;-74
2023/04/21 02:38:29;;;;;;;0.50;0.40;;;;;;;22.51;35.40;101325.41;5029990;28;99641;-75
2023/04/21 02:40:56;;;;;;;0.50;0.50;;;;;;;22.51;35.75;101319.94;5013102;28;97592;-75
2023/04/21 02:43:23;;;;;;;0.60;0.40;;;;;;;22.50;35.39;101313.63;5023288;28;97188;-74
2023/04/21 02:45:50;;;;;;;0.52;0.50;;;;;;;22.51;35.24;101314.47;5026625;28;96927;-74
2023/04/21 02:48:21;;;;;;;0.50;0.40;;;;;;;22.50;35.69;101312.75;5031992;28;96618;-73
2023/04/21 02:50:51;;;;;;;0.50;0.43;;;;;;;22.50;35.49;101315.50;5029803;27;97503;-74
2023/04/21 02:53:19;;;;;;;0.75;0.60;;;;;;;22.50;35.61;101318.25;5000229;28;96793;-72
2023/04/21 02:55:46;;;;;;;0.50;0.45;;;;;;;22.50;35.57;101318.25;5031238;27;96779;-74
2023/04/21 02:58:12;;;;;;;0.40;0.40;;;;;;;22.50;35.81;101312.75;5030885;28;97543;-74
2023/04/21 03:00:40;;;;;;;0.63;0.55;;;;;;;22.49;35.79;101311.91;5012815;28;98326;-73
2023/04/21 03:03:07;;;;;;;0.50;0.40;;;;;;;22.49;35.74;101313.78;5029892;28;96707;-74
2023/04/21 03:05:34;;;;;;;0.60;0.50;;;;;;;22.49;35.74;101300.97;5029479;27;96508;-73
2023/04/21 03:08:00;;;;;;;0.52;0.40;;;;;;;22.49;35.51;101302.84;5029380;27;98868;-74
2023/04/21 03:10:27;;;;;;;0.40;0.40;;;;;;;22.50;35.56;101312.75;5013108;28;96753;-75
2023/04/21 03:12:55;;;;;;;0.60;0.50;;;;;;;22.49;35.88;101308.31;5029154;28;96979;-75
2023/04/21 03:15:22;;;;;;;0.60;0.60;;;;;;;22.49;35.71;101305.59;5022685;27;96665;-75
2023/04/21 03:17:49;;;;;;;0.68;0.43;;;;;;;22.49;35.53;101300.09;5012084;28;98103;-74
2023/04/21 03:20:16;;;;;;;0.52;0.50;;;;;;;22.50;35.63;101301.81;5024222;28;96724;-74
2023/04/21 03:22:43;;;;;;;0.50;0.40;;;;;;;22.49;35.85;101295.50;5003962;28;96754;-74
2023/04/21 03:25:10;;;;;;;0.40;0.40;;;;;;;22.50;35.67;101301.81;5012376;28;97290;-74
2023/04/21 03:27:37;;;;;;;0.70;0.50;;;;;;;22.48;35.71;101304.72;5007493;28;99597;-74
2023/04/21 03:30:05;;;;;;;0.60;0.57;;;;;;;22.49;35.83;101297.38;5024041;28;99639;-74
2023/04/21 03:32:32;;;;;;;0.50;0.50;;;;;;;22.49;35.62;101294.63;5015678;28;97708;-75
2023/04/21 03:34:58;;;;;;;0.52;0.50;;;;;;;22.48;35.52;101296.50;5034635;27;96643;-74
2023/04/21 03:37:25;;;;;;;0.60;0.40;;;;;;;22.49;35.59;101295.50;5015849;28;100097;-75
2023/04/21 03:39:52;;;;;;;0.50;0.50;;;;;;;22.50;35.62;101304.56;5032482;28;99454;-74
2023/04/21 03:42:19;;;;;;;0.60;0.50;;;;;;;22.49;35.59;101291.91;5015471;28;97277;-75
2023/04/21 03:44:45;;;;;;;0.60;0.47;;;;;;;22.50;35.94;101285.41;5031905;28;97139;-75
2023/04/21 03:47:12;;;;;;;0.60;0.47;;;;;;;22.49;35.71;101286.41;5012506;28;97069;-75
2023/04/21 03:49:38;;;;;;;0.50;0.47;;;;;;;22.49;35.54;101295.50;5011368;28;98740;-74
2023/04/21 03:52:05;;;;;;;0.50;0.50;;;;;;;22.49;35.50;101297.38;5032793;28;96658;-74
2023/04/21 03:54:31;;;;;;;0.68;0.50;;;;;;;22.49;35.64;101294.63;5032694;28;96819;-75
2023/04/21 03:56:58;;;;;;;0.70;0.60;;;;;;;22.48;35.47;101285.56;5032232;28;98741;-75
2023/04/21 03:59:24;;;;;;;0.70;0.50;;;;;;;22.49;35.76;101294.63;5015651;28;97078;-73
2023/04/21 04:01:51;;;;;;;0.50;0.50;;;;;;;22.48;35.70;101291.03;5032619;28;96794;-74
2023/04/21 04:04:17;;;;;;;0.40;0.40;;;;;;;22.49;35.69;101289.16;5015713;28;96823;-74
2023/04/21 04:06:44;;;;;;;0.63;0.60;;;;;;;22.48;35.86;101287.44;5031690;28;97607;-73
2023/04/21 04:09:11;;;;;;;0.85;0.60;;;;;;;22.48;35.52;101285.56;5032515;28;96619;-74
2023/04/21 04:11:37;;;;;;;0.82;0.60;;;;;;;22.49;35.64;101283.69;5033376;27;96595;-75
2023/04/21 04:14:04;;;;;;;0.60;0.50;;;;;;;22.48;35.71;101290.19;5032162;28;96849;-75
2023/04/21 04:16:33;;;;;;;0.50;0.50;;;;;;;22.49;35.74;101294.63;5031969;27;98168;-74
2023/04/21 04:18:59;;;;;;;0.43;0.43;;;;;;;22.47;35.74;101292.06;5033481;27;97193;-75
2023/04/21 04:21:27;;;;;;;0.60;0.50;;;;;;;22.49;35.65;101295.50;5017305;28;97110;-75
2023/04/21 04:23:54;;;;;;;0.80;0.70;;;;;;;22.48;35.84;101292.94;5032096;28;98145;-75
2023/04/21 04:26:23;;;;;;;0.60;0.55;;;;;;;22.48;35.86;101299.25;5014003;28;96673;-74
2023/04/21 04:28:55;;;;;;;0.40;0.40;;;;;;;22.48;35.43;101288.31;5017310;28;97244;-75
2023/04/21 04:31:24;;;;;;;0.52;0.50;;;;;;;22.48;35.67;101292.94;5032536;28;96664;-75
2023/04/21 04:33:51;;;;;;;0.70;0.70;;;;;;;22.48;35.93;101292.94;5032546;28;97253;-74
2023/04/21 04:36:21;;;;;;;0.50;0.40;;;;;;;22.47;35.58;101286.59;5031623;28;96941;-75
2023/04/21 04:38:47;;;;;;;0.43;0.40;;;;;;;22.47;35.53;101285.75;5031436;27;97773;-74
2023/04/21 04:41:15;;;;;;;0.60;0.40;;;;;;;22.48;35.64;101281.97;5014492;28;97128;-75
2023/04/21 04:43:42;;;;;;;0.60;0.55;;;;;;;22.47;35.68;101286.59;5019662;28;96878;-74
2023/04/21 04:46:10;;;;;;;0.60;0.50;;;;;;;22.47;35.75;101286.59;5029324;28;97520;-75
2023/04/21 04:48:36;;;;;;;0.82;0.60;;;;;;;22.47;35.52;101288.47;5031755;27;99799;-74
2023/04/21 04:51:03;;;;;;;0.50;0.50;;;;;;;22.47;35.81;101278.38;5014675;28;96973;-75
2023/04/21 04:53:30;;;;;;;0.75;0.60;;;;;;;22.48;35.75;101292.94;5024250;28;96968;-74
2023/04/21 04:56:00;;;;;;;0.70;0.60;;;;;;;22.48;35.46;101293.78;5005234;28;98734;-75
2023/04/21 04:58:26;;;;;;;0.40;0.40;;;;;;;22.47;35.61;101292.06;5018824;28;96785;-74
2023/04/21 05:00:53;;;;;;;0.68;0.55;;;;;;;22.47;35.45;101288.47;5031615;28;96706;-74
2023/04/21 05:03:19;;;;;;;0.55;0.55;;;;;;;22.46;35.87;101293.09;5017435;28;96960;-74
2023/04/21 05:05:46;;;;;;;0.70;0.68;;;;;;;22.47;35.76;101291.22;5030678;28;98804;-75
2023/04/21 05:08:13;;;;;;;0.50;0.40;;;;;;;22.47;35.69;101291.22;5032544;28;97216;-74
2023/04/21 05:10:43;;;;;;;0.70;0.60;;;;;;;22.48;35.40;101298.41;5030946;27;96724;-75
2023/04/21 05:13:09;;;;;;;0.60;0.60;;;;;;;22.48;35.74;101298.41;5015199;28;96667;-75
2023/04/21 05:15:36;;;;;;;0.60;0.40;;;;;;;22.47;35.64;101299.44;5032299;27;96851;-74
2023/04/21 05:18:02;;;;;;;0.60;0.60;;;;;;;22.47;35.78;101303.03;5032401;27;97565;-74
2023/04/21 05:20:29;;;;;;;0.80;0.63;;;;;;;22.46;35.76;101314.16;5030768;28;96817;-72
2023/04/21 05:22:55;;;;;;;0.60;0.60;;;;;;;22.47;35.80;101324.91;5031431;28;96830;-75
2023/04/21 05:25:22;;;;;;;0.40;0.40;;;;;;;22.47;35.77;101313.97;5032080;28;97538;-75
2023/04/21 05:27:48;;;;;;;0.70;0.65;;;;;;;22.47;35.56;101319.44;5025162;28;96856;-74
2023/04/21 05:30:15;;;;;;;0.70;0.50;;;;;;;22.48;35.75;101317.56;5008022;28;97023;-75
2023/04/21 05:32:41;;;;;;;0.70;0.60;;;;;;;22.47;35.69;101324.91;5025580;28;96755;-75
2023/04/21 05:35:08;;;;;;;0.60;0.57;;;;;;;22.48;35.74;101323.03;5005069;28;100015;-73
2023/04/21 05:37:35;;;;;;;0.77;0.50;;;;;;;22.47;35.60;101318.59;5027606;28;96826;-74
2023/04/21 05:40:01;;;;;;;0.50;0.50;;;;;;;22.48;35.78;101325.78;5020754;28;96711;-75
2023/04/21 05:42:28;;;;;;;0.55;0.45;;;;;;;22.49;36.00;101332.94;5014089;28;97157;-74
2023/04/21 05:44:54;;;;;;;0.60;0.60;;;;;;;22.48;35.67;101332.09;5013039;28;97513;-72
2023/04/21 05:47:21;;;;;;;0.40;0.40;;;;;;;22.49;35.93;101327.47;5013666;28;98259;-72
2023/04/21 05:49:52;;;;;;;0.75;0.68;;;;;;;22.49;35.63;101335.69;5031811;27;96736;-75
2023/04/21 05:52:20;;;;;;;1.38;0.60;;;;;;;22.48;35.86;101336.72;5031900;27;97009;-75
2023/04/21 05:54:47;;;;;;;0.65;0.65;;;;;;;22.48;35.93;101337.56;5024916;28;100043;-74
2023/04/21 05:57:15;;;;;;;0.60;0.50;;;;;;;22.48;35.59;101337.56;5022435;28;96702;-74
2023/04/21 05:59:42;;;;;;;0.65;0.50;;;;;;;22.48;35.74;101336.72;5032153;27;97102;-74
2023/04/21 06:02:10;;;;;;;0.60;0.60;;;;;;;22.49;35.53;101335.69;5030775;28;96822;-74
2023/04/21 06:04:37;;;;;;;0.68;0.60;;;;;;;22.48;35.56;101323.03;5029997;28;98566;-75
2023/04/21 06:07:08;;;;;;;0.65;0.60;;;;;;;22.49;35.54;101325.59;5023439;27;96628;-74
2023/04/21 06:09:35;;;;;;;0.80;0.50;;;;;;;22.49;35.89;101324.75;5026738;28;96728;-74
2023/04/21 06:12:02;;;;;;;0.77;0.60;;;;;;;22.49;35.53;101319.28;5030241;28;96713;-75
2023/04/21 06:14:29;;;;;;;0.60;0.57;;;;;;;22.49;35.76;101320.13;5031435;28;96834;-75
2023/04/21 06:16:55;;;;;;;0.40;0.40;;;;;;;22.49;35.55;101313.78;5030048;28;96768;-74
2023/04/21 06:19:22;;;;;;;0.60;0.52;;;;;;;22.48;35.64;101315.69;5030513;28;96820;-74
2023/04/21 06:21:49;;;;;;;0.80;0.68;;;;;;;22.50;35.94;101318.25;5030436;28;96905;-75
2023/04/21 06:24:15;;;;;;;0.70;0.60;;;;;;;22.49;35.75;101322.00;5031341;28;96990;-75
2023/04/21 06:26:42;;;;;;;0.60;0.50;;;;;;;22.50;35.57;101315.50;5028027;27;99991;-75
2023/04/21 06:29:09;;;;;;;0.57;0.57;;;;;;;22.50;35.65;101312.75;5016239;28;96597;-74
2023/04/21 06:31:35;;;;;;;0.60;0.57;;;;;;;22.50;35.73;101315.50;5031327;27;96700;-74
2023/04/21 06:34:02;;;;;;;0.50;0.50;;;;;;;22.51;35.34;101322.69;5029320;28;96805;-74
2023/04/21 06:36:28;;;;;;;0.88;0.68;;;;;;;22.51;35.91;101322.69;5031250;27;97509;-74
2023/04/21 06:38:55;;;;;;;0.50;0.50;;;;;;;22.50;35.44;101319.09;5029770;28;96690;-74
2023/04/21 06:41:21;;;;;;;0.77;0.65;;;;;;;22.51;35.55;101314.47;5018084;28;96604;-74
2023/04/21 06:43:50;;;;;;;0.80;0.70;;;;;;;22.50;35.30;101319.09;5031335;28;96818;-75
2023/04/21 06:46:17;;;;;;;0.82;0.70;;;;;;;22.51;35.57;101322.69;5030458;28;96743;-74
2023/04/21 06:48:43;;;;;;;0.73;0.65;;;;;;;22.49;35.64;101320.13;5031354;27;96728;-75
2023/04/21 06:51:10;;;;;;;0.80;0.70;;;;;;;22.49;35.57;101316.53;5024225;28;97153;-73
2023/04/21 06:53:37;;;;;;;0.88;0.73;;;;;;;22.50;35.45;101320.97;5020487;28;96849;-74
2023/04/21 06:56:04;;;;;;;0.70;0.68;;;;;;;22.50;35.55;101320.97;5029048;28;96943;-75
2023/04/21 06:58:30;;;;;;;0.63;0.60;;;;;;;22.50;35.55;101323.72;5029222;28;96926;-74
2023/04/21 07:00:57;;;;;;;0.85;0.65;;;;;;;22.50;35.56;101323.72;5029823;28;96689;-74
2023/04/21 07:03:23;;;;;;;0.60;0.60;;;;;;;22.50;35.61;101318.25;5028436;28;96953;-75
2023/04/21 07:05:50;;;;;;;0.80;0.65;;;;;;;22.49;35.71;101319.28;5030421;27;96759;-74
2023/04/21 07:08:17;;;;;;;0.80;0.68;;;;;;;22.48;35.68;101310.19;5017162;27;96706;-74
2023/04/21 07:10:43;;;;;;;0.65;0.60;;;;;;;22.48;35.64;101312.09;5029828;28;96552;-74
2023/04/21 07:13:10;;;;;;;0.80;0.60;;;;;;;22.49;35.90;101311.06;5028786;28;96870;-74
2023/04/21 07:15:36;;;;;;;0.60;0.60;;;;;;;22.47;35.88;101319.44;5009200;28;97121;-75
2023/04/21 07:18:03;;;;;;;0.70;0.60;;;;;;;22.47;35.82;101324.06;5010486;28;96814;-74
2023/04/21 07:20:30;;;;;;;0.40;0.40;;;;;;;22.48;35.61;101325.78;5029490;28;97202;-74
2023/04/21 07:22:56;;;;;;;2.05;0.60;;;;;;;22.48;35.68;101320.28;5012106;28;98513;-74
2023/04/21 07:25:23;;;;;;;0.98;0.60;;;;;;;22.47;36.06;101308.50;5028846;28;96664;-74
2023/04/21 07:27:49;;;;;;;0.75;0.68;;;;;;;22.47;35.53;101311.22;5023941;27;97318;-74
2023/04/21 07:30:16;;;;;;;0.93;0.60;;;;;;;22.48;35.61;101314.81;5006269;28;96950;-74
2023/04/21 07:32:42;;;;;;;0.93;0.60;;;;;;;22.47;35.59;101313.97;5012020;28;99381;-75
2023/04/21 07:35:09;;;;;;;0.70;0.70;;;;;;;22.47;35.68;101300.28;5029092;28;97255;-74
2023/04/21 07:37:36;;;;;;;0.52;0.50;;;;;;;22.48;35.76;101301.13;5012511;28;97197;-74
2023/04/21 07:40:03;;;;;;;0.70;0.50;;;;;;;22.48;35.51;101295.66;5030813;28;96875;-75
2023/04/21 07:42:29;;;;;;;0.60;0.60;;;;;;;22.47;36.01;101297.53;5030139;28;97340;-73
2023/04/21 07:44:56;;;;;;;0.63;0.63;;;;;;;22.47;35.89;101308.50;5028278;28;97508;-74
2023/04/21 07:47:23;;;;;;;0.80;0.52;;;;;;;22.46;35.60;101309.53;5015987;28;96713;-74
2023/04/21 07:49:50;;;;;;;0.90;0.63;;;;;;;22.47;35.78;101313.13;5012494;28;97082;-75
2023/04/21 07:52:17;;;;;;;0.73;0.70;;;;;;;22.47;35.20;101310.38;5028654;28;96714;-74
2023/04/21 07:54:43;;;;;;;0.65;0.60;;;;;;;22.46;35.50;101303.19;5028566;28;96659;-75
2023/04/21 07:57:10;;;;;;;0.60;0.50;;;;;;;22.46;35.53;101308.66;5029416;28;97134;-74
2023/04/21 07:59:37;;;;;;;0.60;0.60;;;;;;;22.46;35.77;101306.78;5030415;27;96833;-75
2023/04/21 08:02:03;;;;;;;0.70;0.50;;;;;;;22.46;35.94;101308.66;5029984;27;96705;-75
2023/04/21 08:04:30;;;;;;;0.80;0.70;;;;;;;22.46;35.46;101311.41;5030774;27;97192;-74
2023/04/21 08:06:57;;;;;;;0.63;0.60;;;;;;;22.45;35.67;101316.03;5030641;27;96575;-75
2023/04/21 08:09:25;;;;;;;0.60;0.50;;;;;;;22.46;35.79;101312.25;5028838;28;97746;-75
2023/04/21 08:11:52;;;;;;;0.70;0.60;;;;;;;22.45;35.64;101313.28;5010875;28;96975;-75
2023/04/21 08:14:19;;;;;;;0.90;0.70;;;;;;;22.45;35.50;101310.56;5031544;28;96796;-74
2023/04/21 08:16:46;;;;;;;0.80;0.70;;;;;;;22.46;35.47;101314.16;5033862;27;96635;-74
2023/04/21 08:19:13;;;;;;;0.65;0.60;;;;;;;22.46;35.51;101319.63;5022020;28;97343;-74
2023/04/21 08:21:39;;;;;;;0.70;0.70;;;;;;;22.45;35.29;101306.97;5027867;28;99020;-74
2023/04/21 08:24:06;;;;;;;0.70;0.70;;;;;;;22.46;35.73;101311.41;5031764;28;98896;-74
2023/04/21 08:26:34;;;;;;;0.70;0.70;;;;;;;22.45;36.03;101313.28;5033380;28;96729;-74
2023/04/21 08:29:00;;;;;;;0.82;0.63;;;;;;;22.44;35.85;101306.09;5018265;28;96643;-74
2023/04/21 08:31:30;;;;;;;0.80;0.70;;;;;;;22.44;35.76;101303.38;5015264;28;97675;-75
2023/04/21 08:33:57;;;;;;;1.10;0.88;;;;;;;22.44;35.82;101308.00;5031367;28;97705;-74
2023/04/21 08:36:28;;;;;;;0.70;0.60;;;;;;;22.44;35.71;101314.31;5011881;28;96975;-75
2023/04/21 08:38:57;;;;;;;0.60;0.52;;;;;;;22.44;35.77;101302.53;5027940;28;96850;-75
2023/04/21 08:41:24;;;;;;;0.80;0.60;;;;;;;22.44;35.58;101299.78;5031447;27;98553;-74
2023/04/21 08:43:51;;;;;;;0.63;0.55;;;;;;;22.42;35.66;101304.56;5018403;28;98052;-74
2023/04/21 08:46:17;;;;;;;0.70;0.70;;;;;;;22.44;35.60;101302.53;5011228;28;95905;-75
2023/04/21 08:48:46;;;;;;;0.63;0.60;;;;;;;22.44;35.83;101303.38;5031642;28;97323;-74
2023/04/21 08:51:21;;;;;;;0.80;0.75;;;;;;;22.45;35.55;101301.50;5030936;28;96989;-75
2023/04/21 08:53:48;;;;;;;0.75;0.73;;;;;;;22.43;35.69;101296.19;5033834;27;96943;-75
2023/04/21 08:56:15;;;;;;;0.68;0.50;;;;;;;22.44;35.72;101292.44;5031429;28;96952;-72
2023/04/21 08:58:41;;;;;;;0.80;0.70;;;;;;;22.45;35.47;101294.13;5014703;28;96650;-74
2023/04/21 09:01:08;;;;;;;0.70;0.55;;;;;;;22.44;35.66;101288.84;5031735;27;98110;-75
2023/04/21 09:03:34;;;;;;;0.50;0.43;;;;;;;22.45;35.73;101287.81;5031304;28;97252;-74
2023/04/21 09:06:04;;;;;;;1.13;0.60;;;;;;;22.44;35.57;101288.84;5032900;27;96703;-75
2023/04/21 09:08:32;;;;;;;0.68;0.60;;;;;;;22.45;35.76;101287.81;5017956;28;96586;-75
2023/04/21 09:11:00;;;;;;;0.75;0.60;;;;;;;22.44;35.59;101289.69;5032386;28;96815;-76
2023/04/21 09:13:32;;;;;;;0.80;0.80;;;;;;;22.45;35.66;101296.00;5030991;28;97460;-75
2023/04/21 09:16:00;;;;;;;0.60;0.55;;;;;;;22.45;35.58;101291.41;5031214;28;96780;-76
2023/04/21 09:18:34;;;;;;;1.20;0.70;;;;;;;22.45;35.44;101290.53;5032909;27;96744;-75
2023/04/21 09:21:19;;;;;;;0.88;0.73;;;;;;;22.44;35.72;101281.47;5027647;28;97922;-76
2023/04/21 09:23:45;;;;;;;;;;;;;;;22.40;35.85;101288.34;5008923;28;97161;-75
2023/04/21 09:26:13;;;;;;;0.70;0.70;;;;;;;22.38;35.92;101292.28;5005564;28;97208;-75
2023/04/21 09:28:41;;;;;;;0.80;0.68;;;;;;;22.41;35.68;101294.66;5027516;28;97477;-74
2023/04/21 09:31:16;;;;;;;0.63;0.60;;;;;;;22.42;35.78;101293.63;5021603;28;98330;-74
2023/04/21 09:33:52;;;;;;;0.80;0.68;;;;;;;22.42;35.88;101294.47;5031591;28;97418;-74
2023/04/21 09:36:27;;;;;;;0.80;0.70;;;;;;;22.42;35.50;101290.88;5029420;28;96817;-74
2023/04/21 09:38:56;;;;;;;0.50;0.50;;;;;;;22.42;35.80;101301.84;5027326;28;97016;-74
2023/04/21 09:41:43;;;;;;;0.80;0.70;;;;;;;22.40;35.68;101296.53;5001783;28;96933;-74
2023/04/21 09:44:09;;;;;;;0.75;0.70;;;;;;;22.43;35.76;101293.44;5005022;28;97492;-74
2023/04/21 09:46:36;;;;;;;0.70;0.70;;;;;;;22.43;35.73;101284.38;5028258;28;97020;-73
2023/04/21 09:49:03;;;;;;;0.88;0.70;;;;;;;22.43;35.47;101287.13;5023461;27;96873;-74
2023/04/21 09:51:31;;;;;;;0.70;0.57;;;;;;;22.43;35.83;101290.72;5020048;28;97649;-73
2023/04/21 09:54:11;;;;;;;1.20;0.80;;;;;;;22.43;35.79;101284.38;5019154;28;97952;-74
2023/04/21 09:56:56;;;;;;;0.60;0.60;;;;;;;22.42;35.67;101282.69;5021652;28;96977;-74
2023/04/21 10:00:00;;;;;;;0.90;0.50;;;;;;;22.43;35.85;101277.03;5014604;27;96976;-73
2023/04/21 10:02:30;;;;;;;0.90;0.80;;;;;;;22.42;35.61;101289.00;5011426;28;97013;-73
2023/04/21 10:04:57;;;;;;;0.68;0.60;;;;;;;22.42;35.49;101277.22;5011418;28;98140;-74
2023/04/21 10:07:24;;;;;;;0.70;0.70;;;;;;;22.42;35.76;101269.84;5022030;28;96752;-74
2023/04/21 10:09:54;;;;;;;0.80;0.80;;;;;;;22.43;35.48;101274.28;5030848;28;97046;-72
2023/04/21 10:12:22;;;;;;;1.08;0.80;;;;;;;22.43;35.59;101274.28;5029707;28;96829;-74
2023/04/21 10:14:55;;;;;;;1.17;0.90;;;;;;;22.45;35.82;101274.13;5027749;28;97470;-75
2023/04/21 10:17:24;;;;;;;1.05;0.90;;;;;;;22.45;35.65;101274.13;5010011;28;96710;-74
2023/04/21 10:19:56;;;;;;;0.82;0.70;;;;;;;22.45;35.50;101282.31;5009844;28;97186;-75
2023/04/21 10:22:27;;;;;;;0.98;0.80;;;;;;;22.45;35.76;101271.38;5021985;28;98882;-75
2023/04/21 10:24:58;;;;;;;0.93;0.75;;;;;;;22.46;35.69;101281.31;5022343;28;96849;-74
2023/04/21 10:27:32;;;;;;;1.02;0.80;;;;;;;22.46;35.76;101281.31;5016230;28;97121;-74
2023/04/21 10:30:00;;;;;;;1.38;0.93;;;;;;;22.45;35.62;101274.13;5021923;28;97131;-75
2023/04/21 10:32:42;;;;;;;1.17;1.08;;;;;;;22.47;35.89;101274.78;5014584;28;96940;-74
2023/04/21 10:35:15;;;;;;;1.25;1.15;;;;;;;22.46;35.59;101273.09;5017523;28;96845;-75
2023/04/21 10:37:46;;;;;;;1.20;1.10;;;;;;;22.45;35.75;101266.75;5033886;27;96705;-74
2023/04/21 10:40:45;;;;;;;1.80;1.58;;;;;;;22.46;35.47;101257.53;5018849;28;96911;-73
2023/04/21 10:43:42;;;;;;;1.70;1.60;;;;;;;22.46;35.82;101253.94;5004692;28;97755;-74
2023/04/21 10:46:47;;;;;;;1.77;1.40;;;;;;;22.45;35.99;101249.50;5005456;28;97564;-74
2023/04/21 10:49:25;;;;;;;1.93;1.47;;;;;;;22.44;35.69;101243.16;4989966;28;97207;-75
2023/04/21 10:52:04;;;;;;;1.98;1.77;;;;;;;22.45;35.81;101244.00;4991339;28;97078;-74
2023/04/21 10:54:42;;;;;;;1.83;1.58;;;;;;;22.45;35.96;101233.06;5029100;27;96741;-74
2023/04/21 10:57:11;;;;;;;1.92;1.50;;;;;;;22.45;35.79;101230.31;5019864;28;96848;-75
2023/04/21 10:59:38;;;;;;;1.60;1.50;;;;;;;22.44;35.77;101220.41;5015307;28;96853;-73
2023/04/21 11:02:06;;;;;;;1.95;1.52;;;;;;;22.45;35.84;101217.50;5023510;28;97798;-74
2023/04/21 11:04:33;;;;;;;1.45;1.35;;;;;;;22.46;35.42;101219.19;5026300;28;96972;-74
2023/04/21 11:07:09;;;;;;;1.58;1.48;;;;;;;22.47;35.86;101207.22;5015789;27;97106;-75
2023/04/21 11:09:37;;;;;;;1.80;1.50;;;;;;;22.47;35.83;101212.69;5010480;28;96975;-74
2023/04/21 11:12:07;;;;;;;1.60;1.50;;;;;;;22.48;35.86;101205.34;5011661;28;97153;-75
2023/04/21 11:14:35;;;;;;;1.85;1.70;;;;;;;22.49;35.65;101201.56;5026535;28;96675;-75
2023/04/21 11:17:04;;;;;;;1.58;1.48;;;;;;;22.49;35.61;101199.69;5010379;28;97676;-74
2023/04/21 11:19:31;;;;;;;1.83;1.63;;;;;;;22.50;35.58;101192.31;5011827;28;96922;-74
2023/04/21 11:21:58;;;;;;;1.70;1.50;;;;;;;22.50;35.94;101184.97;5021417;28;96341;-75
2023/04/21 11:24:24;;;;;;;1.50;1.40;;;;;;;22.50;35.52;101178.66;5008956;28;96728;-74
2023/04/21 11:26:51;;;;;;;1.88;1.67;;;;;;;22.51;35.86;101174.88;5019086;28;96774;-75
2023/04/21 11:29:17;;;;;;;1.80;1.67;;;;;;;22.51;35.75;101166.66;5025848;28;97459;-75